createdAt,value
2023-02-27T00:00:14.821Z,52.70
2023-02-27T00:02:47.391Z,51.70
2023-02-27T00:05:15.134Z,52.70
2023-02-27T00:07:42.163Z,53.00
2023-02-27T00:10:11.689Z,53.70
2023-02-27T00:12:39.102Z,53.20
2023-02-27T00:15:09.225Z,53.20
2023-02-27T00:17:36.586Z,53.30
2023-02-27T00:20:11.143Z,53.60
2023-02-27T00:22:39.460Z,53.00
2023-02-27T00:25:07.755Z,53.00
2023-02-27T00:27:35.099Z,50.80
2023-02-27T00:30:03.662Z,53.50
2023-02-27T00:32:30.663Z,52.40
2023-02-27T00:34:57.619Z,54.70
2023-02-27T00:37:24.914Z,50.80
2023-02-27T00:39:52.985Z,53.40
2023-02-27T00:42:20.009Z,52.80
2023-02-27T00:44:46.958Z,54.40
2023-02-27T00:47:14.216Z,53.50
2023-02-27T00:49:41.152Z,54.50
2023-02-27T00:52:09.752Z,53.10
2023-02-27T00:54:36.729Z,52.70
2023-02-27T00:57:03.900Z,54.20
2023-02-27T00:59:30.901Z,53.30
2023-02-27T01:01:58.217Z,53.90
2023-02-27T01:04:28.298Z,53.80
2023-02-27T01:06:55.293Z,52.70
2023-02-27T01:09:22.284Z,52.60
2023-02-27T01:11:50.074Z,55.00
2023-02-27T01:14:17.125Z,53.80
2023-02-27T01:16:45.932Z,54.60
2023-02-27T01:19:15.723Z,54.10
2023-02-27T01:21:44.229Z,53.50
2023-02-27T01:24:12.522Z,54.20
2023-02-27T01:26:41.880Z,54.60
2023-02-27T01:29:10.061Z,53.50
2023-02-27T01:31:39.116Z,51.40
2023-02-27T01:34:06.058Z,55.20
2023-02-27T01:36:33.073Z,54.30
2023-02-27T01:39:00.008Z,53.40
2023-02-27T01:41:27.420Z,55.30
2023-02-27T01:44:05.353Z,54.70
2023-02-27T01:46:33.461Z,53.80
2023-02-27T01:49:08.918Z,55.30
2023-02-27T01:51:52.214Z,54.60
2023-02-27T01:54:22.776Z,54.60
2023-02-27T01:56:50.667Z,54.40
2023-02-27T01:59:19.477Z,55.20
2023-02-27T02:01:51.013Z,55.30
2023-02-27T02:04:24.799Z,54.40
2023-02-27T02:06:58.743Z,51.20
2023-02-27T02:09:26.995Z,53.80
2023-02-27T02:11:55.287Z,55.30
2023-02-27T02:14:22.354Z,53.60
2023-02-27T02:17:04.507Z,55.50
2023-02-27T02:20:08.941Z,55.40
2023-02-27T02:22:57.633Z,55.10
2023-02-27T02:25:58.527Z,55.30
2023-02-27T02:28:48.490Z,55.30
2023-02-27T02:31:18.505Z,54.00
2023-02-27T02:34:03.360Z,53.80
2023-02-27T02:37:17.287Z,55.90
2023-02-27T02:39:55.089Z,54.70
2023-02-27T02:42:40.219Z,55.20
2023-02-27T02:45:41.528Z,54.80
2023-02-27T02:48:35.040Z,55.20
2023-02-27T02:51:23.576Z,54.40
2023-02-27T02:54:14.514Z,54.40
2023-02-27T02:56:44.650Z,54.50
2023-02-27T02:59:36.866Z,53.90
2023-02-27T03:02:17.040Z,53.50
2023-02-27T03:05:10.464Z,53.80
2023-02-27T03:07:47.558Z,54.50
2023-02-27T03:10:29.946Z,53.60
2023-02-27T03:13:28.349Z,54.10
2023-02-27T03:16:04.820Z,54.60
2023-02-27T03:18:43.333Z,53.90
2023-02-27T03:21:43.868Z,54.10
2023-02-27T03:24:17.075Z,53.60
2023-02-27T03:26:45.578Z,53.30
2023-02-27T03:29:19.907Z,53.90
2023-02-27T03:31:58.292Z,54.40
2023-02-27T03:34:33.469Z,54.00
2023-02-27T03:37:30.085Z,54.10
2023-02-27T03:39:57.311Z,53.60
2023-02-27T03:42:38.172Z,54.00
2023-02-27T03:45:33.089Z,54.70
2023-02-27T03:48:01.945Z,54.80
2023-02-27T03:50:29.974Z,54.50
2023-02-27T03:52:57.508Z,54.40
2023-02-27T03:55:32.749Z,54.40
2023-02-27T03:58:00.705Z,53.70
2023-02-27T04:00:29.049Z,53.90
2023-02-27T04:02:58.374Z,53.50
2023-02-27T04:05:29.844Z,54.80
2023-02-27T04:08:21.421Z,54.10
2023-02-27T04:11:02.745Z,53.40
2023-02-27T04:13:38.192Z,53.80
2023-02-27T04:16:20.013Z,54.50
2023-02-27T04:18:47.078Z,54.30
2023-02-27T04:21:28.395Z,54.30
2023-02-27T04:24:04.093Z,54.10
2023-02-27T04:26:51.093Z,54.40
2023-02-27T04:29:20.212Z,54.30
2023-02-27T04:32:13.610Z,54.30
2023-02-27T04:34:48.980Z,53.80
2023-02-27T04:37:25.133Z,53.60
2023-02-27T04:39:57.111Z,52.90
2023-02-27T04:42:28.195Z,54.80
2023-02-27T04:45:00.676Z,54.20
2023-02-27T04:47:34.174Z,53.30
2023-02-27T04:50:10.740Z,54.30
2023-02-27T04:52:41.928Z,54.30
2023-02-27T04:55:21.799Z,54.50
2023-02-27T04:58:01.893Z,54.60
2023-02-27T05:00:32.664Z,54.40
2023-02-27T05:03:09.230Z,54.00
2023-02-27T05:05:38.227Z,54.20
2023-02-27T05:08:41.942Z,53.50
2023-02-27T05:11:45.959Z,54.40
2023-02-27T05:14:30.438Z,54.60
2023-02-27T05:17:03.086Z,54.40
2023-02-27T05:19:32.573Z,54.30
2023-02-27T05:22:20.187Z,54.10
2023-02-27T05:25:08.847Z,54.00
2023-02-27T05:27:46.968Z,53.70
2023-02-27T05:30:33.184Z,54.30
2023-02-27T05:33:11.810Z,54.20
2023-02-27T05:36:02.125Z,53.90
2023-02-27T05:38:40.639Z,54.10
2023-02-27T05:41:17.287Z,54.10
2023-02-27T05:43:50.566Z,54.50
2023-02-27T05:46:46.493Z,54.10
2023-02-27T05:49:25.764Z,54.30
2023-02-27T05:51:54.982Z,53.80
2023-02-27T05:54:55.976Z,53.80
2023-02-27T05:57:49.091Z,53.90
2023-02-27T06:00:22.082Z,53.80
2023-02-27T06:02:49.295Z,53.80
2023-02-27T06:05:18.704Z,54.60
2023-02-27T06:07:45.747Z,54.60
2023-02-27T06:10:17.347Z,52.90
2023-02-27T06:12:44.431Z,54.20
2023-02-27T06:15:12.632Z,54.00
2023-02-27T06:17:39.626Z,54.10
2023-02-27T06:20:07.697Z,53.40
2023-02-27T06:22:35.284Z,54.30
2023-02-27T06:25:02.219Z,54.90
2023-02-27T06:27:29.165Z,52.10
2023-02-27T06:29:57.577Z,54.00
2023-02-27T06:32:25.809Z,54.50
2023-02-27T06:34:53.399Z,55.00
2023-02-27T06:37:21.771Z,53.80
2023-02-27T06:39:48.849Z,55.50
2023-02-27T06:42:16.498Z,54.70
2023-02-27T06:44:43.781Z,55.00
2023-02-27T06:47:10.807Z,55.10
2023-02-27T06:49:37.793Z,55.20
2023-02-27T06:52:07.188Z,55.10
2023-02-27T06:54:34.141Z,55.00
2023-02-27T06:57:01.356Z,55.30
2023-02-27T06:59:28.362Z,55.80
2023-02-27T07:01:55.348Z,55.00
2023-02-27T07:04:22.390Z,54.40
2023-02-27T07:07:33.977Z,55.90
2023-02-27T07:09:37.236Z,54.80
2023-02-27T07:12:05.519Z,56.00
2023-02-27T07:14:32.573Z,55.40
2023-02-27T07:17:03.354Z,55.30
2023-02-27T07:19:32.086Z,55.80
2023-02-27T07:21:59.679Z,56.70
2023-02-27T07:24:26.691Z,55.70
2023-02-27T07:26:54.024Z,55.60
2023-02-27T07:29:21.273Z,55.80
2023-02-27T07:31:48.524Z,55.00
2023-02-27T07:34:15.762Z,54.40
2023-02-27T07:36:43.484Z,54.80
2023-02-27T07:39:13.933Z,54.60
2023-02-27T07:41:40.908Z,54.80
2023-02-27T07:44:10.930Z,55.90
2023-02-27T07:46:38.103Z,54.20
2023-02-27T07:49:05.654Z,55.70
2023-02-27T07:51:32.717Z,55.10
2023-02-27T07:53:59.721Z,55.10
2023-02-27T07:56:27.611Z,55.30
2023-02-27T07:58:54.856Z,56.00
2023-02-27T08:01:22.080Z,53.50
2023-02-27T08:03:49.082Z,54.70
2023-02-27T08:06:16.012Z,56.00
2023-02-27T08:08:43.043Z,55.30
2023-02-27T08:11:10.775Z,53.60
2023-02-27T08:16:24.922Z,54.90
2023-02-27T08:18:52.073Z,54.90
2023-02-27T08:21:19.158Z,55.20
2023-02-27T08:23:46.133Z,55.20
2023-02-27T08:26:13.607Z,54.40
2023-02-27T08:28:40.964Z,54.90
2023-02-27T08:31:08.305Z,55.90
2023-02-27T08:33:35.668Z,54.90
2023-02-27T08:36:02.786Z,55.40
2023-02-27T08:38:29.951Z,53.00
2023-02-27T08:40:57.139Z,55.30
2023-02-27T08:43:24.458Z,53.90
2023-02-27T08:45:52.316Z,52.10
2023-02-27T08:48:19.279Z,54.10
2023-02-27T08:50:47.409Z,54.80
2023-02-27T08:53:14.892Z,53.40
2023-02-27T08:55:42.669Z,53.40
2023-02-27T08:58:10.254Z,52.80
2023-02-27T09:00:37.321Z,52.50
2023-02-27T09:03:04.577Z,51.70
2023-02-27T09:05:35.152Z,51.70
2023-02-27T09:08:03.789Z,50.80
2023-02-27T09:10:32.873Z,51.30
2023-02-27T09:13:00.044Z,51.60
2023-02-27T09:15:27.389Z,50.50
2023-02-27T09:17:56.526Z,52.30
2023-02-27T09:20:23.593Z,50.60
2023-02-27T09:22:50.685Z,49.40
2023-02-27T09:25:17.722Z,51.30
2023-02-27T09:27:44.644Z,52.40
2023-02-27T09:30:13.278Z,51.00
2023-02-27T09:32:40.199Z,51.50
2023-02-27T09:35:07.911Z,50.70
2023-02-27T09:37:35.037Z,47.90
2023-02-27T09:40:02.528Z,51.00
2023-02-27T09:42:38.409Z,49.10
2023-02-27T09:45:08.157Z,48.60
2023-02-27T09:47:44.164Z,49.40
2023-02-27T09:50:38.539Z,47.70
2023-02-27T09:53:13.861Z,48.00
2023-02-27T09:55:42.744Z,49.20
2023-02-27T09:58:42.002Z,50.50
2023-02-27T10:01:47.885Z,48.90
2023-02-27T10:04:18.708Z,49.90
2023-02-27T10:07:38.583Z,46.70
2023-02-27T10:10:11.455Z,48.60
2023-02-27T10:13:15.386Z,48.40
2023-02-27T10:15:48.399Z,47.00
2023-02-27T10:18:30.354Z,48.50
2023-02-27T10:21:08.314Z,49.00
2023-02-27T10:23:42.729Z,46.50
2023-02-27T10:26:30.125Z,47.60
2023-02-27T10:29:01.943Z,49.30
2023-02-27T10:31:33.420Z,45.80
2023-02-27T10:34:01.461Z,50.30
2023-02-27T10:36:34.166Z,49.10
2023-02-27T10:39:07.421Z,49.20
2023-02-27T10:41:36.430Z,49.30
2023-02-27T10:44:04.034Z,48.10
2023-02-27T10:46:38.697Z,47.90
2023-02-27T10:49:21.618Z,47.20
2023-02-27T10:52:09.208Z,48.60
2023-02-27T10:54:37.032Z,48.40
2023-02-27T10:57:18.335Z,48.80
2023-02-27T10:59:52.862Z,45.00
2023-02-27T11:02:24.901Z,49.10
2023-02-27T11:04:58.171Z,47.60
2023-02-27T11:07:27.805Z,47.90
2023-02-27T11:10:16.928Z,46.40
2023-02-27T11:13:02.528Z,47.50
2023-02-27T11:15:33.731Z,45.60
2023-02-27T11:18:27.225Z,46.10
2023-02-27T11:21:13.710Z,48.50
2023-02-27T11:23:55.883Z,46.90
2023-02-27T11:26:33.029Z,46.30
2023-02-27T11:29:20.095Z,46.10
2023-02-27T11:32:03.474Z,46.80
2023-02-27T11:34:37.922Z,48.00
2023-02-27T11:37:08.513Z,47.10
2023-02-27T11:39:48.021Z,47.70
2023-02-27T11:42:18.120Z,45.10
2023-02-27T11:44:54.790Z,48.70
2023-02-27T11:47:35.799Z,47.10
2023-02-27T11:50:33.229Z,45.80
2023-02-27T11:53:27.597Z,46.10
2023-02-27T11:55:59.565Z,46.80
2023-02-27T11:58:32.869Z,43.80
2023-02-27T12:01:09.614Z,48.60
2023-02-27T12:03:55.400Z,45.70
2023-02-27T12:06:35.523Z,45.90
2023-02-27T12:09:08.419Z,45.30
2023-02-27T12:11:45.975Z,45.50
2023-02-27T12:14:45.750Z,47.20
2023-02-27T12:17:29.982Z,45.40
2023-02-27T12:20:10.124Z,44.20
2023-02-27T12:22:46.092Z,46.60
2023-02-27T12:25:41.282Z,45.10
2023-02-27T12:28:31.473Z,44.70
2023-02-27T12:31:42.704Z,44.00
2023-02-27T12:34:47.244Z,45.00
2023-02-27T12:37:20.624Z,41.30
2023-02-27T12:39:48.583Z,41.70
2023-02-27T12:42:33.406Z,43.70
2023-02-27T12:45:22.992Z,46.00
2023-02-27T12:48:22.438Z,47.40
2023-02-27T12:51:05.357Z,47.40
2023-02-27T12:53:58.202Z,45.80
2023-02-27T12:56:46.467Z,44.30
2023-02-27T12:59:32.260Z,45.70
2023-02-27T13:02:18.412Z,46.90
2023-02-27T13:04:48.473Z,44.00
2023-02-27T13:07:26.736Z,46.60
2023-02-27T13:09:59.645Z,45.50
2023-02-27T13:12:41.465Z,44.60
2023-02-27T13:15:35.820Z,45.70
2023-02-27T13:18:27.647Z,43.40
2023-02-27T13:21:04.710Z,42.90
2023-02-27T13:23:35.960Z,44.50
2023-02-27T13:26:13.281Z,44.90
2023-02-27T13:28:40.500Z,41.60
2023-02-27T13:31:46.345Z,42.20
2023-02-27T13:34:22.137Z,43.00
2023-02-27T13:37:06.200Z,44.30
2023-02-27T13:39:39.747Z,43.70
2023-02-27T13:42:30.140Z,45.80
2023-02-27T13:45:18.281Z,41.70
2023-02-27T13:47:50.108Z,43.40
2023-02-27T13:50:22.563Z,42.00
2023-02-27T13:52:49.948Z,43.40
2023-02-27T13:55:29.144Z,44.80
2023-02-27T13:57:59.800Z,42.30
2023-02-27T14:00:29.543Z,43.50
2023-02-27T14:03:01.491Z,41.50
2023-02-27T14:05:41.618Z,43.90
2023-02-27T14:08:25.366Z,45.90
2023-02-27T14:11:08.468Z,43.90
2023-02-27T14:13:50.967Z,41.50
2023-02-27T14:16:44.065Z,43.20
2023-02-27T14:19:19.783Z,47.00
2023-02-27T14:21:56.964Z,43.50
2023-02-27T14:24:33.376Z,44.60
2023-02-27T14:27:02.386Z,44.40
2023-02-27T14:29:33.472Z,43.00
2023-02-27T14:32:08.052Z,42.90
2023-02-27T14:34:37.704Z,40.90
2023-02-27T14:37:10.205Z,43.70
2023-02-27T14:39:38.128Z,42.60
2023-02-27T14:42:25.657Z,45.10
2023-02-27T14:44:53.423Z,45.70
2023-02-27T14:47:33.082Z,47.30
2023-02-27T14:50:01.182Z,45.70
2023-02-27T14:52:31.137Z,45.00
2023-02-27T14:55:28.047Z,45.00
2023-02-27T14:58:17.072Z,45.70
2023-02-27T15:00:50.710Z,43.00
2023-02-27T15:03:21.600Z,43.70
2023-02-27T15:05:50.851Z,46.70
2023-02-27T15:08:33.624Z,46.10
2023-02-27T15:11:02.411Z,42.00
2023-02-27T15:13:40.142Z,42.50
2023-02-27T15:16:25.234Z,45.30
2023-02-27T15:18:55.408Z,46.70
2023-02-27T15:21:25.711Z,46.00
2023-02-27T15:24:01.568Z,46.20
2023-02-27T15:26:32.200Z,44.30
2023-02-27T15:29:00.024Z,43.30
2023-02-27T15:31:31.239Z,44.50
2023-02-27T15:34:00.632Z,45.30
2023-02-27T15:36:33.391Z,43.20
2023-02-27T15:39:11.899Z,43.50
2023-02-27T15:41:39.364Z,43.70
2023-02-27T15:44:06.471Z,45.70
2023-02-27T15:46:33.679Z,47.20
2023-02-27T15:49:00.876Z,47.80
2023-02-27T15:51:28.996Z,45.20
2023-02-27T15:54:00.178Z,46.00
2023-02-27T15:56:34.891Z,45.10
2023-02-27T15:59:02.022Z,45.40
2023-02-27T16:01:35.151Z,46.90
2023-02-27T16:04:05.137Z,43.90
2023-02-27T16:06:35.299Z,45.90
2023-02-27T16:09:21.008Z,44.10
2023-02-27T16:11:48.260Z,45.00
2023-02-27T16:14:42.568Z,47.10
2023-02-27T16:17:32.875Z,46.40
2023-02-27T16:20:02.637Z,44.90
2023-02-27T16:22:30.553Z,43.90
2023-02-27T16:25:11.884Z,46.30
2023-02-27T16:27:39.685Z,43.80
2023-02-27T16:30:11.341Z,45.50
2023-02-27T16:32:43.995Z,46.90
2023-02-27T16:35:22.616Z,45.90
2023-02-27T16:37:52.871Z,43.20
2023-02-27T16:40:22.614Z,45.40
2023-02-27T16:42:50.588Z,45.10
2023-02-27T16:45:26.614Z,46.40
2023-02-27T16:47:56.268Z,46.20
2023-02-27T16:50:43.100Z,45.80
2023-02-27T16:53:10.071Z,46.10
2023-02-27T16:55:43.134Z,44.30
2023-02-27T16:58:15.591Z,45.40
2023-02-27T17:00:43.251Z,44.80
2023-02-27T17:03:10.421Z,46.70
2023-02-27T17:05:37.392Z,45.10
2023-02-27T17:08:04.628Z,46.40
2023-02-27T17:10:32.012Z,45.50
2023-02-27T17:13:00.237Z,46.00
2023-02-27T17:15:29.075Z,45.60
2023-02-27T17:17:56.193Z,45.80
2023-02-27T17:20:24.547Z,48.30
2023-02-27T17:22:51.705Z,47.40
2023-02-27T17:25:21.610Z,46.70
2023-02-27T17:27:48.599Z,46.50
2023-02-27T17:30:15.668Z,46.90
2023-02-27T17:32:42.670Z,46.40
2023-02-27T17:35:10.374Z,46.00
2023-02-27T17:37:37.680Z,46.70
2023-02-27T17:40:06.956Z,46.40
2023-02-27T17:42:36.390Z,46.20
2023-02-27T17:45:05.609Z,46.70
2023-02-27T17:47:33.790Z,46.70
2023-02-27T17:50:01.035Z,46.90
2023-02-27T17:52:28.012Z,46.10
2023-02-27T17:54:55.828Z,46.70
2023-02-27T17:57:23.056Z,46.30
2023-02-27T17:59:50.166Z,45.80
2023-02-27T18:02:17.134Z,46.80
2023-02-27T18:04:44.142Z,46.30
2023-02-27T18:07:11.667Z,47.00
2023-02-27T18:09:39.478Z,46.90
2023-02-27T18:12:07.114Z,46.60
2023-02-27T18:14:34.905Z,46.60
2023-02-27T18:17:01.866Z,46.60
2023-02-27T18:19:32.387Z,46.20
2023-02-27T18:21:59.787Z,46.80
2023-02-27T18:24:26.746Z,47.70
2023-02-27T18:26:55.145Z,46.00
2023-02-27T18:29:22.116Z,46.60
2023-02-27T18:31:54.050Z,47.00
2023-02-27T18:34:22.400Z,43.00
2023-02-27T18:36:51.302Z,46.70
2023-02-27T18:39:19.047Z,47.10
2023-02-27T18:41:46.219Z,45.70
2023-02-27T18:44:13.138Z,45.90
2023-02-27T18:46:40.764Z,45.50
2023-02-27T18:49:08.883Z,46.10
2023-02-27T18:51:36.443Z,44.90
2023-02-27T18:54:05.170Z,43.80
2023-02-27T18:56:32.971Z,43.50
2023-02-27T18:59:05.162Z,45.30
2023-02-27T19:01:35.762Z,46.70
2023-02-27T19:04:05.149Z,46.30
2023-02-27T19:06:42.336Z,45.30
2023-02-27T19:09:12.260Z,45.30
2023-02-27T19:11:39.465Z,46.90
2023-02-27T19:14:08.822Z,47.50
2023-02-27T19:16:36.045Z,46.80
2023-02-27T19:19:04.925Z,47.30
2023-02-27T19:21:32.732Z,45.70
2023-02-27T19:24:00.129Z,47.10
2023-02-27T19:26:27.427Z,46.70
2023-02-27T19:28:55.883Z,48.40
2023-02-27T19:31:24.378Z,47.80
2023-02-27T19:33:51.857Z,48.30
2023-02-27T19:36:20.973Z,48.40
2023-02-27T19:38:49.170Z,47.10
2023-02-27T19:41:17.546Z,47.90
2023-02-27T19:43:45.723Z,47.40
2023-02-27T19:46:18.878Z,47.50
2023-02-27T19:48:53.535Z,46.90
2023-02-27T19:51:24.477Z,46.70
2023-02-27T19:53:51.817Z,47.00
2023-02-27T19:56:24.582Z,47.80
2023-02-27T19:58:52.397Z,47.50
2023-02-27T20:01:24.771Z,47.60
2023-02-27T20:03:52.215Z,48.10
2023-02-27T20:06:23.184Z,47.00
2023-02-27T20:08:51.108Z,47.60
2023-02-27T20:11:20.697Z,46.90
2023-02-27T20:13:51.958Z,48.30
2023-02-27T20:16:22.258Z,48.30
2023-02-27T20:18:50.230Z,46.90
2023-02-27T20:21:20.691Z,48.60
2023-02-27T20:23:50.244Z,48.00
2023-02-27T20:26:23.146Z,48.10
2023-02-27T20:28:52.255Z,48.00
2023-02-27T20:31:22.012Z,47.90
2023-02-27T20:33:49.765Z,47.40
2023-02-27T20:36:17.264Z,48.30
2023-02-27T20:38:45.044Z,48.30
2023-02-27T20:41:18.464Z,48.30
2023-02-27T20:43:45.552Z,47.80
2023-02-27T20:46:16.019Z,48.20
2023-02-27T20:48:44.090Z,47.80
2023-02-27T20:51:14.604Z,48.30
2023-02-27T20:53:43.765Z,48.10
2023-02-27T20:56:11.516Z,49.20
2023-02-27T20:58:39.494Z,48.70
2023-02-27T21:01:12.131Z,48.80
2023-02-27T21:03:40.887Z,47.80
2023-02-27T21:06:10.030Z,47.70
2023-02-27T21:08:39.170Z,46.70
2023-02-27T21:11:21.555Z,47.50
2023-02-27T21:13:50.107Z,47.70
2023-02-27T21:16:18.496Z,47.80
2023-02-27T21:18:46.391Z,47.10
2023-02-27T21:21:20.307Z,47.40
2023-02-27T21:23:47.246Z,47.20
2023-02-27T21:26:20.333Z,47.40
2023-02-27T21:28:53.299Z,47.10
2023-02-27T21:31:22.572Z,46.20
2023-02-27T21:33:50.570Z,46.90
2023-02-27T21:36:18.236Z,46.50
2023-02-27T21:38:46.144Z,46.70
2023-02-27T21:41:13.372Z,47.10
2023-02-27T21:43:40.612Z,47.50
2023-02-27T21:46:10.382Z,47.30
2023-02-27T21:48:37.830Z,47.70
2023-02-27T21:51:05.968Z,47.80
2023-02-27T21:53:33.391Z,47.50
2023-02-27T21:56:08.208Z,48.00
2023-02-27T21:58:38.200Z,47.50
2023-02-27T22:01:16.907Z,47.60
2023-02-27T22:03:45.785Z,47.70
2023-02-27T22:06:14.394Z,48.20
2023-02-27T22:08:42.292Z,48.20
2023-02-27T22:11:09.618Z,48.10
2023-02-27T22:13:37.826Z,48.30
2023-02-27T22:16:10.171Z,48.10
2023-02-27T22:18:38.581Z,48.20
2023-02-27T22:21:11.456Z,48.80
2023-02-27T22:23:38.780Z,48.50
2023-02-27T22:26:11.320Z,48.60
2023-02-27T22:28:41.252Z,48.70
2023-02-27T22:31:15.935Z,48.50
2023-02-27T22:33:45.281Z,48.80
2023-02-27T22:36:20.986Z,48.90
2023-02-27T22:38:48.425Z,48.80
2023-02-27T22:41:21.677Z,49.00
2023-02-27T22:43:49.065Z,49.10
2023-02-27T22:46:28.506Z,49.10
2023-02-27T22:49:00.885Z,49.00
2023-02-27T22:51:29.040Z,49.50
2023-02-27T22:53:57.957Z,48.50
2023-02-27T22:56:26.056Z,49.10
2023-02-27T22:58:53.775Z,49.80
2023-02-27T23:01:23.553Z,49.30
2023-02-27T23:03:53.202Z,50.60
2023-02-27T23:06:25.045Z,50.40
2023-02-27T23:08:52.163Z,50.20
2023-02-27T23:11:20.189Z,50.20
2023-02-27T23:13:47.850Z,50.10
2023-02-27T23:16:15.258Z,49.90
2023-02-27T23:18:50.849Z,49.50
2023-02-27T23:21:20.201Z,49.60
2023-02-27T23:23:47.968Z,50.00
2023-02-27T23:26:15.350Z,50.80
2023-02-27T23:28:42.783Z,50.40
2023-02-27T23:31:09.953Z,50.70
2023-02-27T23:33:37.357Z,50.70
2023-02-27T23:36:04.950Z,50.60
2023-02-27T23:38:32.469Z,50.60
2023-02-27T23:41:06.423Z,50.70
2023-02-27T23:43:34.058Z,51.10
2023-02-27T23:46:12.620Z,50.00
2023-02-27T23:48:40.221Z,49.60
2023-02-27T23:51:08.573Z,50.70
2023-02-27T23:53:36.620Z,51.20
2023-02-27T23:56:15.285Z,51.40
2023-02-27T23:58:42.418Z,51.40
